createdAt,value
2019-02-23T19:02:32.688Z,23.60
2019-02-23T19:04:59.967Z,24.77
2019-02-23T19:07:27.201Z,25.72
2019-02-23T19:09:54.282Z,27.90
2019-02-23T19:12:21.525Z,24.25
2019-02-23T19:14:48.554Z,28.92
2019-02-23T19:17:15.589Z,30.82
2019-02-23T19:19:42.640Z,31.75
2019-02-23T19:22:11.019Z,36.58
2019-02-23T19:24:38.352Z,37.73
2019-02-23T19:27:06.241Z,33.88
2019-02-23T19:29:33.316Z,44.25
2019-02-23T19:32:00.445Z,33.08
2019-02-23T19:34:28.103Z,39.95
2019-02-23T19:36:55.150Z,35.35
2019-02-23T19:39:22.450Z,38.50
2019-02-23T19:41:50.014Z,35.60
2019-02-23T19:44:17.197Z,34.35
2019-02-23T19:46:47.819Z,37.20
2019-02-23T19:49:14.962Z,37.58
2019-02-23T19:51:42.214Z,38.53
2019-02-23T19:54:09.492Z,37.10
2019-02-23T19:56:36.964Z,39.05
2019-02-23T19:59:04.104Z,39.33
2019-02-23T20:01:31.490Z,43.05
2019-02-23T20:03:58.684Z,41.90
2019-02-23T20:06:25.928Z,38.38
2019-02-23T20:08:53.529Z,41.88
2019-02-23T20:11:21.766Z,39.58
2019-02-23T20:13:53.230Z,33.92
2019-02-23T20:18:48.250Z,36.85
2019-02-23T20:21:16.181Z,36.55
2019-02-23T20:23:43.567Z,42.90
2019-02-23T20:26:10.622Z,40.03
2019-02-23T20:28:38.880Z,32.15
2019-02-23T20:31:06.219Z,34.30
2019-02-23T20:33:33.591Z,34.08
2019-02-23T20:36:01.965Z,40.52
2019-02-23T20:38:29.618Z,37.03
2019-02-23T20:40:56.767Z,42.80
2019-02-23T20:43:27.080Z,33.85
2019-02-23T20:45:54.442Z,40.67
2019-02-23T20:48:21.936Z,36.88
2019-02-23T20:50:49.253Z,46.50
2019-02-23T20:53:16.721Z,43.30
2019-02-23T20:55:43.950Z,40.60
2019-02-23T20:58:11.204Z,40.58
2019-02-23T21:00:38.679Z,36.50
2019-02-23T21:03:06.347Z,33.42
2019-02-23T21:05:33.565Z,42.67
2019-02-23T21:08:00.798Z,35.17
2019-02-23T21:10:28.409Z,37.03
2019-02-23T21:12:55.900Z,27.73
2019-02-23T21:15:23.097Z,28.67
2019-02-23T21:17:50.891Z,37.60
2019-02-23T21:20:18.224Z,31.33
2019-02-23T21:22:45.996Z,33.88
2019-02-23T21:25:13.763Z,37.53
2019-02-23T21:27:41.159Z,32.25
2019-02-23T21:30:09.588Z,33.28
2019-02-23T21:32:36.977Z,30.75
2019-02-23T21:35:05.335Z,31.20
2019-02-23T21:37:33.790Z,34.98
2019-02-23T21:40:01.002Z,30.62
2019-02-23T21:42:30.929Z,35.40
2019-02-23T21:44:58.374Z,37.58
2019-02-23T21:47:26.075Z,43.92
2019-02-23T21:49:53.712Z,41.50
2019-02-23T21:52:20.876Z,44.93
2019-02-23T21:54:48.228Z,40.05
2019-02-23T21:57:21.942Z,38.95
2019-02-23T21:59:45.780Z,41.08
2019-02-23T22:02:13.115Z,36.90
2019-02-23T22:04:40.165Z,43.00
2019-02-23T22:07:08.065Z,45.88
2019-02-23T22:09:36.040Z,49.58
2019-02-23T22:12:03.178Z,50.58
2019-02-23T22:14:30.837Z,54.88
2019-02-23T22:16:57.865Z,52.65
2019-02-23T22:19:25.261Z,55.80
2019-02-23T22:21:52.877Z,54.53
2019-02-23T22:24:20.474Z,63.10
2019-02-23T22:26:48.156Z,48.73
2019-02-23T22:29:15.542Z,42.20
2019-02-23T22:31:44.002Z,50.15
2019-02-23T22:34:11.637Z,49.85
2019-02-23T22:36:39.046Z,54.40
2019-02-23T22:39:07.251Z,46.58
2019-02-23T22:41:35.199Z,48.83
2019-02-23T22:44:02.348Z,53.90
2019-02-23T22:46:30.587Z,54.23
2019-02-23T22:48:57.993Z,46.18
2019-02-23T22:51:25.392Z,50.20
2019-02-23T22:53:53.323Z,46.48
2019-02-23T22:56:20.554Z,47.20
2019-02-23T22:58:47.758Z,45.78
2019-02-23T23:01:15.969Z,46.63
2019-02-23T23:03:44.920Z,42.08
2019-02-23T23:06:12.504Z,50.00
2019-02-23T23:08:40.034Z,43.95
2019-02-23T23:11:07.638Z,40.75
2019-02-23T23:13:35.158Z,51.48
2019-02-23T23:19:49.117Z,42.23
2019-02-23T23:22:16.917Z,42.40
2019-02-23T23:24:44.882Z,47.75
2019-02-23T23:27:12.719Z,45.73
2019-02-23T23:29:40.420Z,37.75
2019-02-23T23:32:07.558Z,42.98
2019-02-23T23:34:35.802Z,48.83
2019-02-23T23:37:03.153Z,50.23
2019-02-23T23:39:33.592Z,48.70
2019-02-23T23:42:00.820Z,42.73
2019-02-23T23:44:28.378Z,47.98
2019-02-23T23:46:56.103Z,46.48
2019-02-23T23:49:23.287Z,47.78
2019-02-23T23:51:50.748Z,44.38
2019-02-23T23:54:18.246Z,46.13
2019-02-23T23:56:46.003Z,55.70
2019-02-23T23:59:13.527Z,49.58
